sensor_id;sensor_type;location;lat;lon;timestamp;pressure;altitude;pressure_sealevel;temperature;humidity
36692;BME280;22678;52.052;4.242;2024-03-23T00:54:20;101063.72;;;7.16;98.03
36692;BME280;22678;52.052;4.242;2024-03-23T00:56:46;101068.94;;;7.13;98.23
36692;BME280;22678;52.052;4.242;2024-03-23T00:59:11;101181.19;;;7.79;97.87
36692;BME280;22678;52.052;4.242;2024-03-23T01:01:37;101141.69;;;7.56;97.75
36692;BME280;22678;52.052;4.242;2024-03-23T01:04:02;101173.19;;;7.67;97.14
36692;BME280;22678;52.052;4.242;2024-03-23T01:06:28;101169.69;;;7.65;96.82
36692;BME280;22678;52.052;4.242;2024-03-23T01:08:53;101124.09;;;7.40;96.60
36692;BME280;22678;52.052;4.242;2024-03-23T01:11:18;101079.31;;;7.04;96.34
36692;BME280;22678;52.052;4.242;2024-03-23T01:13:43;101060.88;;;6.95;96.16
36692;BME280;22678;52.052;4.242;2024-03-23T01:16:09;101135.41;;;7.35;96.03
36692;BME280;22678;52.052;4.242;2024-03-23T01:18:34;101129.31;;;7.36;95.81
36692;BME280;22678;52.052;4.242;2024-03-23T01:20:59;101161.72;;;7.51;95.64
36692;BME280;22678;52.052;4.242;2024-03-23T01:23:25;101066.97;;;6.91;95.37
36692;BME280;22678;52.052;4.242;2024-03-23T01:25:54;101075.72;;;6.97;95.30
36692;BME280;22678;52.052;4.242;2024-03-23T01:28:22;101088.78;;;6.96;95.00
36692;BME280;22678;52.052;4.242;2024-03-23T01:30:48;101047.56;;;6.70;95.15
36692;BME280;22678;52.052;4.242;2024-03-23T01:33:14;101162.41;;;7.34;95.11
36692;BME280;22678;52.052;4.242;2024-03-23T01:35:40;101138.81;;;7.27;94.71
36692;BME280;22678;52.052;4.242;2024-03-23T01:38:06;101059.94;;;6.85;95.04
36692;BME280;22678;52.052;4.242;2024-03-23T01:40:31;101027.50;;;6.66;94.85
36692;BME280;22678;52.052;4.242;2024-03-23T01:42:58;101138.81;;;7.27;94.79
36692;BME280;22678;52.052;4.242;2024-03-23T01:45:24;101167.66;;;7.34;94.74
36692;BME280;22678;52.052;4.242;2024-03-23T01:47:53;101037.94;;;6.64;94.38
36692;BME280;22678;52.052;4.242;2024-03-23T01:50:19;101142.34;;;7.29;94.41
36692;BME280;22678;52.052;4.242;2024-03-23T01:52:46;101081.69;;;6.84;94.29
36692;BME280;22678;52.052;4.242;2024-03-23T01:55:11;101097.53;;;6.96;94.41
36692;BME280;22678;52.052;4.242;2024-03-23T01:57:37;101075.56;;;6.79;94.35
36692;BME280;22678;52.052;4.242;2024-03-23T02:00:03;101135.31;;;7.25;94.18
36692;BME280;22678;52.052;4.242;2024-03-23T02:02:28;101131.72;;;7.16;94.04
36692;BME280;22678;52.052;4.242;2024-03-23T02:04:54;101032.66;;;6.60;93.76
36692;BME280;22678;52.052;4.242;2024-03-23T02:07:19;101142.28;;;7.26;93.29
36692;BME280;22678;52.052;4.242;2024-03-23T02:09:45;101125.59;;;7.14;93.22
36692;BME280;22678;52.052;4.242;2024-03-23T02:12:10;101127.41;;;7.20;93.02
36692;BME280;22678;52.052;4.242;2024-03-23T02:14:36;101086.13;;;6.90;92.71
36692;BME280;22678;52.052;4.242;2024-03-23T02:17:01;101125.69;;;7.22;92.66
36692;BME280;22678;52.052;4.242;2024-03-23T02:19:26;101109.84;;;7.07;92.54
36692;BME280;22678;52.052;4.242;2024-03-23T02:21:52;101036.31;;;6.76;92.35
36692;BME280;22678;52.052;4.242;2024-03-23T02:24:17;101049.41;;;6.77;91.96
36692;BME280;22678;52.052;4.242;2024-03-23T02:26:42;100983.63;;;6.39;91.79
36692;BME280;22678;52.052;4.242;2024-03-23T02:29:08;101065.16;;;6.85;92.06
36692;BME280;22678;52.052;4.242;2024-03-23T02:31:34;101109.88;;;7.10;91.69
36692;BME280;22678;52.052;4.242;2024-03-23T02:33:59;101028.22;;;6.53;91.36
36692;BME280;22678;52.052;4.242;2024-03-23T02:36:25;101097.56;;;6.99;91.07
36692;BME280;22678;52.052;4.242;2024-03-23T02:38:51;101076.47;;;6.84;90.31
36692;BME280;22678;52.052;4.242;2024-03-23T02:41:17;101075.69;;;6.93;89.87
36692;BME280;22678;52.052;4.242;2024-03-23T02:43:49;101085.34;;;6.98;89.43
36692;BME280;22678;52.052;4.242;2024-03-23T02:46:14;101073.91;;;6.89;89.24
36692;BME280;22678;52.052;4.242;2024-03-23T02:48:40;101066.94;;;6.88;89.03
36692;BME280;22678;52.052;4.242;2024-03-23T02:51:05;101106.31;;;7.05;88.99
36692;BME280;22678;52.052;4.242;2024-03-23T02:53:30;101090.59;;;7.01;88.71
36692;BME280;22678;52.052;4.242;2024-03-23T02:55:58;101088.81;;;6.99;88.51
36692;BME280;22678;52.052;4.242;2024-03-23T02:58:23;101076.63;;;6.98;87.75
36692;BME280;22678;52.052;4.242;2024-03-23T03:00:48;101090.66;;;7.08;86.81
36692;BME280;22678;52.052;4.242;2024-03-23T03:03:13;101065.22;;;6.93;86.75
36692;BME280;22678;52.052;4.242;2024-03-23T03:05:39;101077.53;;;7.03;86.92
36692;BME280;22678;52.052;4.242;2024-03-23T03:08:04;101083.63;;;7.04;86.88
36692;BME280;22678;52.052;4.242;2024-03-23T03:10:30;101091.50;;;7.05;87.05
36692;BME280;22678;52.052;4.242;2024-03-23T03:12:56;101098.50;;;7.09;87.07
36692;BME280;22678;52.052;4.242;2024-03-23T03:15:22;101075.72;;;6.96;87.04
36692;BME280;22678;52.052;4.242;2024-03-23T03:17:47;101092.38;;;7.04;87.58
36692;BME280;22678;52.052;4.242;2024-03-23T03:20:12;101089.72;;;6.98;87.14
36692;BME280;22678;52.052;4.242;2024-03-23T03:22:38;101076.63;;;6.98;87.14
36692;BME280;22678;52.052;4.242;2024-03-23T03:25:05;101091.47;;;7.02;87.16
36692;BME280;22678;52.052;4.242;2024-03-23T03:27:32;101070.47;;;6.93;87.06
36692;BME280;22678;52.052;4.242;2024-03-23T03:29:57;101086.19;;;6.96;87.06
36692;BME280;22678;52.052;4.242;2024-03-23T03:32:23;101069.56;;;6.89;86.77
36692;BME280;22678;52.052;4.242;2024-03-23T03:34:48;101078.28;;;6.91;86.53
36692;BME280;22678;52.052;4.242;2024-03-23T03:37:15;101058.13;;;6.79;86.39
36692;BME280;22678;52.052;4.242;2024-03-23T03:39:40;101058.13;;;6.79;86.51
36692;BME280;22678;52.052;4.242;2024-03-23T03:42:05;101048.47;;;6.72;87.12
36692;BME280;22678;52.052;4.242;2024-03-23T03:44:33;101051.94;;;6.73;87.10
36692;BME280;22678;52.052;4.242;2024-03-23T03:46:58;101058.06;;;6.73;87.37
36692;BME280;22678;52.052;4.242;2024-03-23T03:49:23;101062.47;;;6.77;87.42
36692;BME280;22678;52.052;4.242;2024-03-23T03:51:48;101029.13;;;6.58;87.67
36692;BME280;22678;52.052;4.242;2024-03-23T03:54:14;101038.78;;;6.65;88.12
36692;BME280;22678;52.052;4.242;2024-03-23T03:56:39;101037.09;;;6.67;88.00
36692;BME280;22678;52.052;4.242;2024-03-23T03:59:05;101026.53;;;6.61;87.93
36692;BME280;22678;52.052;4.242;2024-03-23T04:01:30;101025.66;;;6.57;88.13
36692;BME280;22678;52.052;4.242;2024-03-23T04:03:55;101048.38;;;6.64;87.96
36692;BME280;22678;52.052;4.242;2024-03-23T04:06:21;101045.81;;;6.68;88.19
36692;BME280;22678;52.052;4.242;2024-03-23T04:08:46;101026.53;;;6.59;88.43
36692;BME280;22678;52.052;4.242;2024-03-23T04:11:11;101031.81;;;6.64;88.41
36692;BME280;22678;52.052;4.242;2024-03-23T04:13:37;101032.69;;;6.63;88.43
36692;BME280;22678;52.052;4.242;2024-03-23T04:16:02;101060.69;;;6.73;88.59
36692;BME280;22678;52.052;4.242;2024-03-23T04:18:27;101036.16;;;6.62;88.67
36692;BME280;22678;52.052;4.242;2024-03-23T04:20:53;101030.03;;;6.60;88.43
36692;BME280;22678;52.052;4.242;2024-03-23T04:23:18;101027.47;;;6.64;88.59
36692;BME280;22678;52.052;4.242;2024-03-23T04:25:43;101024.84;;;6.63;88.73
36692;BME280;22678;52.052;4.242;2024-03-23T04:28:09;101026.56;;;6.64;88.89
36692;BME280;22678;52.052;4.242;2024-03-23T04:30:34;101045.88;;;6.75;89.24
36692;BME280;22678;52.052;4.242;2024-03-23T04:33:00;101041.44;;;6.70;89.25
36692;BME280;22678;52.052;4.242;2024-03-23T04:35:26;101019.63;;;6.63;89.41
36692;BME280;22678;52.052;4.242;2024-03-23T04:37:51;101041.47;;;6.73;89.81
36692;BME280;22678;52.052;4.242;2024-03-23T04:40:24;101035.34;;;6.66;89.80
36692;BME280;22678;52.052;4.242;2024-03-23T04:42:49;101019.63;;;6.64;90.11
36692;BME280;22678;52.052;4.242;2024-03-23T04:45:14;101029.25;;;6.65;90.68
36692;BME280;22678;52.052;4.242;2024-03-23T04:47:40;101030.16;;;6.72;89.99
36692;BME280;22678;52.052;4.242;2024-03-23T04:50:06;101038.94;;;6.77;89.91
36692;BME280;22678;52.052;4.242;2024-03-23T04:52:31;101024.91;;;6.68;89.18
36692;BME280;22678;52.052;4.242;2024-03-23T04:54:56;101052.09;;;6.85;87.57
36692;BME280;22678;52.052;4.242;2024-03-23T04:57:22;101038.88;;;6.74;86.22
36692;BME280;22678;52.052;4.242;2024-03-23T04:59:48;101052.09;;;6.85;86.22
36692;BME280;22678;52.052;4.242;2024-03-23T05:02:14;101031.94;;;6.73;86.26
36692;BME280;22678;52.052;4.242;2024-03-23T05:04:39;101019.69;;;6.69;86.24
36692;BME280;22678;52.052;4.242;2024-03-23T05:07:05;101026.69;;;6.73;86.81
36692;BME280;22678;52.052;4.242;2024-03-23T05:09:31;101024.94;;;6.72;86.93
36692;BME280;22678;52.052;4.242;2024-03-23T05:11:58;101045.88;;;6.75;87.19
36692;BME280;22678;52.052;4.242;2024-03-23T05:14:23;101045.84;;;6.72;87.75
36692;BME280;22678;52.052;4.242;2024-03-23T05:16:48;101051.03;;;6.69;88.24
36692;BME280;22678;52.052;4.242;2024-03-23T05:19:14;101055.44;;;6.73;88.68
36692;BME280;22678;52.052;4.242;2024-03-23T05:21:39;101057.09;;;6.65;88.83
36692;BME280;22678;52.052;4.242;2024-03-23T05:24:05;101036.13;;;6.59;88.70
36692;BME280;22678;52.052;4.242;2024-03-23T05:26:30;101039.63;;;6.62;89.21
36692;BME280;22678;52.052;4.242;2024-03-23T05:28:56;101034.38;;;6.59;89.13
36692;BME280;22678;52.052;4.242;2024-03-23T05:31:28;101033.50;;;6.59;89.34
36692;BME280;22678;52.052;4.242;2024-03-23T05:33:54;101047.56;;;6.67;89.14
36692;BME280;22678;52.052;4.242;2024-03-23T05:36:20;101041.38;;;6.60;88.56
36692;BME280;22678;52.052;4.242;2024-03-23T05:38:45;101042.22;;;6.61;88.55
36692;BME280;22678;52.052;4.242;2024-03-23T05:41:11;101039.56;;;6.55;88.46
36692;BME280;22678;52.052;4.242;2024-03-23T05:43:36;101054.44;;;6.62;88.36
36692;BME280;22678;52.052;4.242;2024-03-23T05:46:02;101031.72;;;6.55;88.57
36692;BME280;22678;52.052;4.242;2024-03-23T05:48:27;101034.28;;;6.52;88.66
36692;BME280;22678;52.052;4.242;2024-03-23T05:50:53;101036.88;;;6.50;88.63
36692;BME280;22678;52.052;4.242;2024-03-23T05:53:20;101029.03;;;6.48;88.24
36692;BME280;22678;52.052;4.242;2024-03-23T05:55:46;101029.94;;;6.52;88.09
36692;BME280;22678;52.052;4.242;2024-03-23T05:58:14;101012.47;;;6.46;88.02
36692;BME280;22678;52.052;4.242;2024-03-23T06:00:39;101020.34;;;6.48;87.91
36692;BME280;22678;52.052;4.242;2024-03-23T06:03:05;101023.81;;;6.48;88.54
36692;BME280;22678;52.052;4.242;2024-03-23T06:05:30;100997.47;;;6.30;88.89
36692;BME280;22678;52.052;4.242;2024-03-23T06:07:55;101023.75;;;6.44;89.09
36692;BME280;22678;52.052;4.242;2024-03-23T06:10:21;101046.53;;;6.56;88.57
36692;BME280;22678;52.052;4.242;2024-03-23T06:12:46;101025.53;;;6.45;88.37
36692;BME280;22678;52.052;4.242;2024-03-23T06:15:11;101025.41;;;6.37;88.45
36692;BME280;22678;52.052;4.242;2024-03-23T06:17:37;101038.56;;;6.43;88.31
36692;BME280;22678;52.052;4.242;2024-03-23T06:20:03;101051.72;;;6.53;88.56
36692;BME280;22678;52.052;4.242;2024-03-23T06:22:28;101033.28;;;6.40;88.34
36692;BME280;22678;52.052;4.242;2024-03-23T06:24:54;101026.31;;;6.39;88.58
36692;BME280;22678;52.052;4.242;2024-03-23T06:27:19;101044.81;;;6.58;89.17
36692;BME280;22678;52.052;4.242;2024-03-23T06:29:45;101018.50;;;6.39;89.32
36692;BME280;22678;52.052;4.242;2024-03-23T06:32:10;101056.22;;;6.63;89.06
36692;BME280;22678;52.052;4.242;2024-03-23T06:34:35;101037.03;;;6.64;88.73
36692;BME280;22678;52.052;4.242;2024-03-23T06:37:00;101033.47;;;6.56;88.62
36692;BME280;22678;52.052;4.242;2024-03-23T06:39:26;101042.31;;;6.67;88.53
36692;BME280;22678;52.052;4.242;2024-03-23T06:41:52;101031.75;;;6.58;88.39
36692;BME280;22678;52.052;4.242;2024-03-23T06:44:18;101034.38;;;6.61;88.10
36692;BME280;22678;52.052;4.242;2024-03-23T06:46:44;101041.44;;;6.68;87.56
36692;BME280;22678;52.052;4.242;2024-03-23T06:49:09;101046.69;;;6.71;87.16
36692;BME280;22678;52.052;4.242;2024-03-23T06:51:35;101054.53;;;6.71;86.78
36692;BME280;22678;52.052;4.242;2024-03-23T06:54:01;101037.09;;;6.67;86.98
36692;BME280;22678;52.052;4.242;2024-03-23T06:56:27;101029.25;;;6.67;87.36
36692;BME280;22678;52.052;4.242;2024-03-23T06:58:52;101040.66;;;6.75;87.70
36692;BME280;22678;52.052;4.242;2024-03-23T07:01:17;101046.06;;;6.91;87.77
36692;BME280;22678;52.052;4.242;2024-03-23T07:03:43;101051.31;;;6.94;87.24
36692;BME280;22678;52.052;4.242;2024-03-23T07:06:09;101052.19;;;6.97;87.17
36692;BME280;22678;52.052;4.242;2024-03-23T07:08:35;101046.06;;;6.94;87.10
36692;BME280;22678;52.052;4.242;2024-03-23T07:11:00;101051.44;;;7.09;86.51
36692;BME280;22678;52.052;4.242;2024-03-23T07:13:26;101052.50;;;7.28;86.00
36692;BME280;22678;52.052;4.242;2024-03-23T07:15:52;101063.09;;;7.42;84.76
36692;BME280;22678;52.052;4.242;2024-03-23T07:18:18;101039.41;;;7.27;83.49
36692;BME280;22678;52.052;4.242;2024-03-23T07:20:55;101042.88;;;7.26;82.86
36692;BME280;22678;52.052;4.242;2024-03-23T07:23:22;101059.44;;;7.25;82.43
36692;BME280;22678;52.052;4.242;2024-03-23T07:26:01;101040.97;;;7.09;82.94
36692;BME280;22678;52.052;4.242;2024-03-23T07:28:27;101067.38;;;7.34;82.71
36692;BME280;22678;52.052;4.242;2024-03-23T07:31:06;101059.56;;;7.42;82.33
36692;BME280;22678;52.052;4.242;2024-03-23T07:33:36;101057.00;;;7.46;82.45
36692;BME280;22678;52.052;4.242;2024-03-23T07:36:02;101064.06;;;7.57;82.70
36692;BME280;22678;52.052;4.242;2024-03-23T07:38:28;101057.19;;;7.72;82.28
36692;BME280;22678;52.052;4.242;2024-03-23T07:43:32;101038.13;;;7.91;80.42
36692;BME280;22678;52.052;4.242;2024-03-23T07:45:59;101039.81;;;7.82;80.38
36692;BME280;22678;52.052;4.242;2024-03-23T07:48:24;101048.50;;;7.78;80.65
36692;BME280;22678;52.052;4.242;2024-03-23T07:51:06;101037.13;;;7.71;80.76
36692;BME280;22678;52.052;4.242;2024-03-23T07:53:32;101035.38;;;7.70;81.53
36692;BME280;22678;52.052;4.242;2024-03-23T07:56:01;101055.53;;;7.82;81.13
36692;BME280;22678;52.052;4.242;2024-03-23T07:58:27;101046.81;;;7.85;80.53
36692;BME280;22678;52.052;4.242;2024-03-23T08:00:56;101051.19;;;7.87;79.77
36692;BME280;22678;52.052;4.242;2024-03-23T08:03:21;101039.81;;;7.85;78.97
36692;BME280;22678;52.052;4.242;2024-03-23T08:05:47;101049.47;;;7.93;78.52
36692;BME280;22678;52.052;4.242;2024-03-23T08:08:12;101057.38;;;7.99;78.80
36692;BME280;22678;52.052;4.242;2024-03-23T08:10:50;101034.59;;;7.88;78.51
36692;BME280;22678;52.052;4.242;2024-03-23T08:13:16;101047.72;;;7.95;78.82
36692;BME280;22678;52.052;4.242;2024-03-23T08:15:42;101050.34;;;7.92;79.23
36692;BME280;22678;52.052;4.242;2024-03-23T08:18:07;101039.84;;;7.88;79.34
36692;BME280;22678;52.052;4.242;2024-03-23T08:20:33;101030.22;;;7.86;79.27
36692;BME280;22678;52.052;4.242;2024-03-23T08:22:58;101025.88;;;7.83;78.61
36692;BME280;22678;52.052;4.242;2024-03-23T08:25:23;101018.88;;;7.87;78.11
36692;BME280;22678;52.052;4.242;2024-03-23T08:27:48;101017.19;;;7.94;77.91
36692;BME280;22678;52.052;4.242;2024-03-23T08:30:14;101032.94;;;8.03;77.59
36692;BME280;22678;52.052;4.242;2024-03-23T08:32:39;101017.13;;;7.87;77.46
36692;BME280;22678;52.052;4.242;2024-03-23T08:35:05;101034.66;;;8.01;78.08
36692;BME280;22678;52.052;4.242;2024-03-23T08:37:30;101031.22;;;8.11;77.83
36692;BME280;22678;52.052;4.242;2024-03-23T08:39:56;101014.75;;;8.37;77.95
36692;BME280;22678;52.052;4.242;2024-03-23T08:42:21;101022.72;;;8.57;77.17
36692;BME280;22678;52.052;4.242;2024-03-23T08:44:47;101020.97;;;8.61;76.01
36692;BME280;22678;52.052;4.242;2024-03-23T08:47:15;101033.25;;;8.74;74.14
36692;BME280;22678;52.052;4.242;2024-03-23T08:49:40;101039.34;;;8.70;73.98
36692;BME280;22678;52.052;4.242;2024-03-23T08:52:06;101031.53;;;8.76;74.81
36692;BME280;22678;52.052;4.242;2024-03-23T08:54:31;101030.69;;;9.00;75.31
36692;BME280;22678;52.052;4.242;2024-03-23T08:56:57;101023.69;;;9.27;74.99
36692;BME280;22678;52.052;4.242;2024-03-23T08:59:22;101024.56;;;9.49;72.68
36692;BME280;22678;52.052;4.242;2024-03-23T09:01:49;101047.31;;;9.56;71.23
36692;BME280;22678;52.052;4.242;2024-03-23T09:04:14;101031.56;;;9.72;71.38
36692;BME280;22678;52.052;4.242;2024-03-23T09:06:42;101042.88;;;9.83;71.01
36692;BME280;22678;52.052;4.242;2024-03-23T09:09:07;101030.66;;;9.68;69.84
36692;BME280;22678;52.052;4.242;2024-03-23T09:11:33;101029.81;;;9.52;70.25
36692;BME280;22678;52.052;4.242;2024-03-23T09:13:58;101025.44;;;9.37;70.57
36692;BME280;22678;52.052;4.242;2024-03-23T09:16:23;101043.81;;;9.45;69.79
36692;BME280;22678;52.052;4.242;2024-03-23T09:18:48;101035.94;;;9.45;69.92
36692;BME280;22678;52.052;4.242;2024-03-23T09:21:14;101028.06;;;9.54;70.75
36692;BME280;22678;52.052;4.242;2024-03-23T09:23:41;101030.69;;;9.62;69.91
36692;BME280;22678;52.052;4.242;2024-03-23T09:26:08;101028.94;;;9.56;69.66
36692;BME280;22678;52.052;4.242;2024-03-23T09:28:33;101033.31;;;9.42;69.07
36692;BME280;22678;52.052;4.242;2024-03-23T09:31:05;101043.81;;;9.29;69.88
36692;BME280;22678;52.052;4.242;2024-03-23T09:33:32;101043.78;;;9.14;70.39
36692;BME280;22678;52.052;4.242;2024-03-23T09:35:57;101037.69;;;9.18;71.58
36692;BME280;22678;52.052;4.242;2024-03-23T09:38:23;101021.94;;;9.21;70.97
36692;BME280;22678;52.052;4.242;2024-03-23T09:40:52;101056.06;;;9.40;71.06
36692;BME280;22678;52.052;4.242;2024-03-23T09:43:18;101019.31;;;9.37;71.77
36692;BME280;22678;52.052;4.242;2024-03-23T09:45:45;101023.69;;;9.47;71.57
36692;BME280;22678;52.052;4.242;2024-03-23T09:48:10;101038.53;;;9.67;70.92
36692;BME280;22678;52.052;4.242;2024-03-23T09:50:40;101040.28;;;9.71;69.75
36692;BME280;22678;52.052;4.242;2024-03-23T09:53:07;101044.66;;;9.65;69.71
36692;BME280;22678;52.052;4.242;2024-03-23T09:55:32;101026.28;;;9.65;69.60
36692;BME280;22678;52.052;4.242;2024-03-23T09:57:57;101036.75;;;9.87;70.12
36692;BME280;22678;52.052;4.242;2024-03-23T10:00:23;101037.59;;;10.08;69.58
36692;BME280;22678;52.052;4.242;2024-03-23T10:02:48;101024.47;;;10.05;68.01
36692;BME280;22678;52.052;4.242;2024-03-23T10:05:21;101040.19;;;10.15;67.27
36692;BME280;22678;52.052;4.242;2024-03-23T10:07:52;101038.47;;;10.13;66.19
36692;BME280;22678;52.052;4.242;2024-03-23T10:10:18;101038.44;;;10.14;66.66
36692;BME280;22678;52.052;4.242;2024-03-23T10:12:47;101035.75;;;10.30;67.19
36692;BME280;22678;52.052;4.242;2024-03-23T10:15:23;101037.50;;;10.40;66.65
36692;BME280;22678;52.052;4.242;2024-03-23T10:17:49;101031.34;;;10.46;64.75
36692;BME280;22678;52.052;4.242;2024-03-23T10:20:23;101032.22;;;10.43;65.03
36692;BME280;22678;52.052;4.242;2024-03-23T10:22:50;101038.22;;;10.68;65.62
36692;BME280;22678;52.052;4.242;2024-03-23T10:25:17;101032.88;;;10.84;63.90
36692;BME280;22678;52.052;4.242;2024-03-23T10:27:42;101018.00;;;10.80;63.56
36692;BME280;22678;52.052;4.242;2024-03-23T10:30:09;101026.63;;;11.00;63.98
36692;BME280;22678;52.052;4.242;2024-03-23T10:32:34;101023.06;;;11.11;64.36
36692;BME280;22678;52.052;4.242;2024-03-23T10:35:21;101030.84;;;11.21;64.23
36692;BME280;22678;52.052;4.242;2024-03-23T10:37:48;101023.84;;;11.22;63.31
36692;BME280;22678;52.052;4.242;2024-03-23T10:40:17;101028.94;;;11.40;63.18
36692;BME280;22678;52.052;4.242;2024-03-23T10:42:44;100998.28;;;11.33;62.24
36692;BME280;22678;52.052;4.242;2024-03-23T10:45:09;101027.94;;;11.55;62.04
36692;BME280;22678;52.052;4.242;2024-03-23T10:47:35;101005.31;;;11.33;61.20
36692;BME280;22678;52.052;4.242;2024-03-23T10:50:04;101018.34;;;11.50;61.24
36692;BME280;22678;52.052;4.242;2024-03-23T10:52:33;100995.63;;;11.39;60.76
36692;BME280;22678;52.052;4.242;2024-03-23T10:55:01;101001.84;;;11.26;60.48
36692;BME280;22678;52.052;4.242;2024-03-23T10:57:39;101004.47;;;11.32;61.41
36692;BME280;22678;52.052;4.242;2024-03-23T11:00:06;101013.34;;;11.19;60.46
36692;BME280;22678;52.052;4.242;2024-03-23T11:02:31;100991.59;;;10.94;60.92
36692;BME280;22678;52.052;4.242;2024-03-23T11:04:57;101014.44;;;10.90;61.03
36692;BME280;22678;52.052;4.242;2024-03-23T11:07:32;101013.59;;;10.88;61.74
36692;BME280;22678;52.052;4.242;2024-03-23T11:09:59;101010.78;;;11.08;62.54
36692;BME280;22678;52.052;4.242;2024-03-23T11:12:31;101007.81;;;11.47;60.96
36692;BME280;22678;52.052;4.242;2024-03-23T11:15:03;100991.22;;;11.42;60.49
36692;BME280;22678;52.052;4.242;2024-03-23T11:17:29;101012.28;;;11.42;59.95
36692;BME280;22678;52.052;4.242;2024-03-23T11:25:17;101019.38;;;11.30;59.12
36692;BME280;22678;52.052;4.242;2024-03-23T11:27:48;101018.78;;;10.94;60.45
36692;BME280;22678;52.052;4.242;2024-03-23T11:32:43;101016.06;;;11.05;61.48
36692;BME280;22678;52.052;4.242;2024-03-23T11:35:09;100971.25;;;11.13;60.98
36692;BME280;22678;52.052;4.242;2024-03-23T11:37:37;100991.13;;;11.49;59.94
36692;BME280;22678;52.052;4.242;2024-03-23T11:40:19;101004.22;;;11.57;59.49
36692;BME280;22678;52.052;4.242;2024-03-23T11:42:44;100995.28;;;11.73;59.80
36692;BME280;22678;52.052;4.242;2024-03-23T11:45:10;100980.16;;;11.94;59.92
36692;BME280;22678;52.052;4.242;2024-03-23T11:47:35;100993.03;;;12.19;58.30
36692;BME280;22678;52.052;4.242;2024-03-23T11:50:01;100972.78;;;12.22;57.45
36692;BME280;22678;52.052;4.242;2024-03-23T11:52:26;100988.59;;;12.22;57.98
36692;BME280;22678;52.052;4.242;2024-03-23T11:55:03;100972.03;;;12.13;56.21
36692;BME280;22678;52.052;4.242;2024-03-23T11:57:29;100988.81;;;12.04;56.30
36692;BME280;22678;52.052;4.242;2024-03-23T11:59:54;100967.22;;;11.69;56.60
36692;BME280;22678;52.052;4.242;2024-03-23T12:02:20;101014.88;;;11.45;59.32
36692;BME280;22678;52.052;4.242;2024-03-23T12:04:45;100985.59;;;10.78;60.79
36692;BME280;22678;52.052;4.242;2024-03-23T12:07:15;101005.88;;;10.51;61.57
36692;BME280;22678;52.052;4.242;2024-03-23T12:09:43;100992.94;;;10.02;63.09
36692;BME280;22678;52.052;4.242;2024-03-23T12:12:18;100999.16;;;9.68;64.29
36692;BME280;22678;52.052;4.242;2024-03-23T12:14:44;100978.22;;;9.33;67.30
36692;BME280;22678;52.052;4.242;2024-03-23T12:17:11;100978.22;;;9.29;69.12
36692;BME280;22678;52.052;4.242;2024-03-23T12:19:38;100966.81;;;9.43;71.71
36692;BME280;22678;52.052;4.242;2024-03-23T12:22:04;100931.81;;;9.53;73.80
36692;BME280;22678;52.052;4.242;2024-03-23T12:24:31;100963.19;;;9.93;75.53
36692;BME280;22678;52.052;4.242;2024-03-23T12:27:03;100957.88;;;10.09;73.71
36692;BME280;22678;52.052;4.242;2024-03-23T12:29:32;100936.91;;;9.92;73.53
36692;BME280;22678;52.052;4.242;2024-03-23T12:32:01;100950.06;;;9.89;73.32
36692;BME280;22678;52.052;4.242;2024-03-23T12:34:28;100938.75;;;9.71;71.96
36692;BME280;22678;52.052;4.242;2024-03-23T12:36:54;100938.81;;;9.54;71.75
36692;BME280;22678;52.052;4.242;2024-03-23T12:39:20;100954.53;;;9.48;71.32
36692;BME280;22678;52.052;4.242;2024-03-23T12:41:48;100955.44;;;9.32;71.64
36692;BME280;22678;52.052;4.242;2024-03-23T12:44:14;100944.97;;;9.18;73.07
36692;BME280;22678;52.052;4.242;2024-03-23T12:46:43;100949.34;;;9.26;74.20
36692;BME280;22678;52.052;4.242;2024-03-23T12:49:09;100923.09;;;9.33;74.78
36692;BME280;22678;52.052;4.242;2024-03-23T12:51:34;100921.25;;;9.65;72.82
36692;BME280;22678;52.052;4.242;2024-03-23T12:54:00;100915.91;;;9.92;72.19
36692;BME280;22678;52.052;4.242;2024-03-23T12:56:25;100914.81;;;10.33;73.01
36692;BME280;22678;52.052;4.242;2024-03-23T12:58:51;100934.69;;;10.79;71.44
36692;BME280;22678;52.052;4.242;2024-03-23T13:01:17;100920.59;;;10.89;68.36
36692;BME280;22678;52.052;4.242;2024-03-23T13:03:46;100906.66;;;10.75;65.82
36692;BME280;22678;52.052;4.242;2024-03-23T13:06:11;100924.13;;;10.90;65.96
36692;BME280;22678;52.052;4.242;2024-03-23T13:08:37;100925.66;;;11.14;64.88
36692;BME280;22678;52.052;4.242;2024-03-23T13:11:02;100923.75;;;11.28;64.10
36692;BME280;22678;52.052;4.242;2024-03-23T13:13:28;100914.94;;;11.32;62.31
36692;BME280;22678;52.052;4.242;2024-03-23T13:15:53;100911.38;;;11.36;62.19
36692;BME280;22678;52.052;4.242;2024-03-23T13:18:19;100914.78;;;11.48;62.00
36692;BME280;22678;52.052;4.242;2024-03-23T13:20:44;100874.53;;;11.33;61.84
36692;BME280;22678;52.052;4.242;2024-03-23T13:23:09;100927.84;;;11.55;60.84
36692;BME280;22678;52.052;4.242;2024-03-23T13:25:35;100925.19;;;11.57;61.50
36692;BME280;22678;52.052;4.242;2024-03-23T13:28:00;100944.66;;;11.44;63.50
36692;BME280;22678;52.052;4.242;2024-03-23T13:30:26;100892.53;;;10.91;63.40
36692;BME280;22678;52.052;4.242;2024-03-23T13:32:51;100922.56;;;10.62;63.27
36692;BME280;22678;52.052;4.242;2024-03-23T13:35:16;100928.91;;;10.23;65.58
36692;BME280;22678;52.052;4.242;2024-03-23T13:37:42;100924.66;;;9.95;67.95
36692;BME280;22678;52.052;4.242;2024-03-23T13:40:08;100919.50;;;9.69;69.64
36692;BME280;22678;52.052;4.242;2024-03-23T13:42:34;100929.13;;;9.76;71.58
36692;BME280;22678;52.052;4.242;2024-03-23T13:44:59;100914.16;;;9.95;71.97
36692;BME280;22678;52.052;4.242;2024-03-23T13:47:24;100887.81;;;10.08;72.98
36692;BME280;22678;52.052;4.242;2024-03-23T13:49:49;100915.69;;;10.43;72.61
36692;BME280;22678;52.052;4.242;2024-03-23T13:52:15;100912.09;;;10.56;69.80
36692;BME280;22678;52.052;4.242;2024-03-23T13:54:41;100883.34;;;10.24;68.70
36692;BME280;22678;52.052;4.242;2024-03-23T13:57:11;100887.84;;;10.05;67.95